createdAt,value
2017-05-26T00:00:16.363Z,15.25
2017-05-26T00:00:56.978Z,15.28
2017-05-26T00:01:37.617Z,15.25
2017-05-26T00:02:20.813Z,15.22
2017-05-26T00:03:01.414Z,15.24
2017-05-26T00:03:41.996Z,15.31
2017-05-26T00:04:22.583Z,15.27
2017-05-26T00:05:03.205Z,15.28
2017-05-26T00:05:43.803Z,15.19
2017-05-26T00:06:24.378Z,15.25
2017-05-26T00:07:04.956Z,15.22
2017-05-26T00:07:45.542Z,15.25
2017-05-26T00:08:26.126Z,15.31
2017-05-26T00:09:06.720Z,15.27
2017-05-26T00:09:47.333Z,15.28
2017-05-26T00:10:27.908Z,15.21
2017-05-26T00:11:08.520Z,15.19
2017-05-26T00:11:49.121Z,15.22
2017-05-26T00:12:29.709Z,15.19
2017-05-26T00:13:10.280Z,15.17
2017-05-26T00:13:50.873Z,15.18
2017-05-26T00:14:31.466Z,15.17
2017-05-26T00:15:12.043Z,15.24
2017-05-26T00:15:52.641Z,15.25
2017-05-26T00:16:33.225Z,15.18
2017-05-26T00:17:13.798Z,15.24
2017-05-26T00:17:54.379Z,15.14
2017-05-26T00:18:34.965Z,15.06
2017-05-26T00:19:15.599Z,15.11
2017-05-26T00:19:56.186Z,15.07
2017-05-26T00:20:36.776Z,15.09
2017-05-26T00:21:17.360Z,15.07
2017-05-26T00:21:57.948Z,15.15
2017-05-26T00:22:38.535Z,15.11
2017-05-26T00:23:19.137Z,15.09
2017-05-26T00:23:59.738Z,15.09
2017-05-26T00:24:40.353Z,15.09
2017-05-26T00:25:20.939Z,15.09
2017-05-26T00:26:01.522Z,15.09
2017-05-26T00:26:42.187Z,15.11
2017-05-26T00:27:22.684Z,15.1
2017-05-26T00:28:03.293Z,15.07
2017-05-26T00:28:43.891Z,15.09
2017-05-26T00:29:24.458Z,15.1
2017-05-26T00:30:05.085Z,15.17
2017-05-26T00:30:45.664Z,15.1
2017-05-26T00:31:26.253Z,15.1
2017-05-26T00:32:06.875Z,15.09
2017-05-26T00:32:47.455Z,15.14
2017-05-26T00:33:28.044Z,15.1
2017-05-26T00:34:08.624Z,15.03
2017-05-26T00:34:49.214Z,15.07
2017-05-26T00:35:29.782Z,15.11
2017-05-26T00:36:10.380Z,15.09
2017-05-26T00:36:50.961Z,15.11
2017-05-26T00:37:31.539Z,15.07
2017-05-26T00:38:12.118Z,15.07
2017-05-26T00:38:52.702Z,15.02
2017-05-26T00:39:33.295Z,15.06
2017-05-26T00:40:13.872Z,15.02
2017-05-26T00:40:54.461Z,14.97
2017-05-26T00:41:35.051Z,14.96
2017-05-26T00:42:15.638Z,14.92
2017-05-26T00:42:56.235Z,15
2017-05-26T00:43:37.458Z,15
2017-05-26T00:44:18.050Z,14.97
2017-05-26T00:44:58.649Z,14.99
2017-05-26T00:45:39.235Z,14.92
2017-05-26T00:46:19.826Z,14.94
2017-05-26T00:47:00.444Z,15.03
2017-05-26T00:47:41.028Z,14.99
2017-05-26T00:48:21.606Z,14.96
2017-05-26T00:49:02.237Z,14.99
2017-05-26T00:49:42.816Z,14.97
2017-05-26T00:50:23.421Z,14.94
2017-05-26T00:51:03.995Z,15.03
2017-05-26T00:51:44.584Z,14.97
2017-05-26T00:52:25.164Z,14.94
2017-05-26T00:53:05.743Z,15.03
2017-05-26T00:53:46.330Z,14.94
2017-05-26T00:54:26.956Z,15.03
2017-05-26T00:55:07.553Z,14.89
2017-05-26T00:55:48.152Z,14.97
2017-05-26T00:56:28.747Z,14.88
2017-05-26T00:57:09.337Z,14.99
2017-05-26T00:57:49.941Z,14.91
2017-05-26T00:58:30.521Z,14.92
2017-05-26T00:59:11.097Z,14.91
2017-05-26T00:59:51.702Z,14.94
2017-05-26T01:00:32.299Z,14.85
2017-05-26T01:01:12.883Z,14.92
2017-05-26T01:01:53.470Z,14.84
2017-05-26T01:02:34.049Z,14.94
2017-05-26T01:03:14.640Z,14.91
2017-05-26T01:03:55.339Z,14.99
2017-05-26T01:04:35.915Z,14.86
2017-05-26T01:05:16.490Z,14.89
2017-05-26T01:05:57.073Z,14.86
2017-05-26T01:06:37.713Z,14.88
2017-05-26T01:07:18.300Z,14.88
2017-05-26T01:07:58.903Z,14.84
2017-05-26T01:08:39.528Z,14.79
2017-05-26T01:09:20.101Z,14.85
2017-05-26T01:10:00.678Z,14.79
2017-05-26T01:10:41.264Z,14.84
2017-05-26T01:11:21.883Z,14.88
2017-05-26T01:12:02.456Z,14.81
2017-05-26T01:12:43.051Z,14.79
2017-05-26T01:13:23.638Z,14.84
2017-05-26T01:14:04.213Z,14.78
2017-05-26T01:14:44.804Z,14.79
2017-05-26T01:15:25.398Z,14.82
2017-05-26T01:16:05.986Z,14.84
2017-05-26T01:16:46.595Z,14.82
2017-05-26T01:17:27.154Z,14.81
2017-05-26T01:18:07.733Z,14.82
2017-05-26T01:18:48.310Z,14.69
2017-05-26T01:19:28.894Z,14.84
2017-05-26T01:20:09.472Z,14.68
2017-05-26T01:20:50.057Z,14.81
2017-05-26T01:21:30.700Z,14.81
2017-05-26T01:22:11.289Z,14.81
2017-05-26T01:22:51.869Z,14.78
2017-05-26T01:23:32.446Z,14.69
2017-05-26T01:24:13.021Z,14.81
2017-05-26T01:24:53.645Z,14.78
2017-05-26T01:25:34.236Z,14.79
2017-05-26T01:26:14.843Z,14.7
2017-05-26T01:26:55.426Z,14.81
2017-05-26T01:27:36.010Z,14.79
2017-05-26T01:28:16.595Z,14.66
2017-05-26T01:28:57.253Z,14.66
2017-05-26T01:29:37.806Z,14.69
2017-05-26T01:30:18.394Z,14.66
2017-05-26T01:30:58.999Z,14.72
2017-05-26T01:31:39.580Z,14.7
2017-05-26T01:32:20.174Z,14.68
2017-05-26T01:33:00.766Z,14.7
2017-05-26T01:33:41.348Z,14.72
2017-05-26T01:34:21.947Z,14.68
2017-05-26T01:35:02.569Z,14.7
2017-05-26T01:35:43.165Z,14.68
2017-05-26T01:36:23.750Z,14.54
2017-05-26T01:37:04.348Z,14.72
2017-05-26T01:37:44.972Z,14.69
2017-05-26T01:38:25.533Z,14.63
2017-05-26T01:39:06.117Z,14.65
2017-05-26T01:39:46.723Z,14.66
2017-05-26T01:40:27.306Z,14.7
2017-05-26T01:41:07.947Z,14.63
2017-05-26T01:41:48.489Z,14.62
2017-05-26T01:42:29.075Z,14.58
2017-05-26T01:43:09.689Z,14.6
2017-05-26T01:43:50.291Z,14.63
2017-05-26T01:44:30.885Z,14.6
2017-05-26T01:45:11.471Z,14.65
2017-05-26T01:45:52.067Z,14.63
2017-05-26T01:46:32.693Z,14.58
2017-05-26T01:47:13.296Z,14.6
2017-05-26T01:47:53.891Z,14.58
2017-05-26T01:48:34.485Z,14.59
2017-05-26T01:49:15.071Z,14.66
2017-05-26T01:49:55.649Z,14.58
2017-05-26T01:50:36.239Z,14.58
2017-05-26T01:51:16.821Z,14.62
2017-05-26T01:51:57.403Z,14.58
2017-05-26T01:52:38.007Z,14.58
2017-05-26T01:53:18.616Z,14.63
2017-05-26T01:53:59.196Z,14.59
2017-05-26T01:54:39.774Z,14.6
2017-05-26T01:55:20.361Z,14.65
2017-05-26T01:56:00.951Z,14.6
2017-05-26T01:56:41.544Z,14.6
2017-05-26T01:57:22.134Z,14.6
2017-05-26T01:58:02.733Z,14.59
2017-05-26T01:58:43.378Z,14.59
2017-05-26T01:59:23.975Z,14.66
2017-05-26T02:00:04.633Z,14.59
2017-05-26T02:00:45.143Z,14.66
2017-05-26T02:01:25.731Z,14.7
2017-05-26T02:02:06.392Z,14.58
2017-05-26T02:02:47.027Z,14.55
2017-05-26T02:03:27.624Z,14.66
2017-05-26T02:04:08.211Z,14.7
2017-05-26T02:04:48.792Z,14.7
2017-05-26T02:05:29.385Z,14.62
2017-05-26T02:06:09.958Z,14.63
2017-05-26T02:06:50.540Z,14.73
2017-05-26T02:07:31.134Z,14.7
2017-05-26T02:08:11.729Z,14.6
2017-05-26T02:08:52.313Z,14.66
2017-05-26T02:09:32.895Z,14.68
2017-05-26T02:10:13.479Z,14.7
2017-05-26T02:10:54.080Z,14.59
2017-05-26T02:11:34.668Z,14.63
2017-05-26T02:12:15.261Z,14.68
2017-05-26T02:12:55.846Z,14.65
2017-05-26T02:13:36.429Z,14.66
2017-05-26T02:14:17.036Z,14.68
2017-05-26T02:14:57.630Z,14.69
2017-05-26T02:15:38.216Z,14.77
2017-05-26T02:16:18.808Z,14.69
2017-05-26T02:16:59.403Z,14.66
2017-05-26T02:17:39.984Z,14.7
2017-05-26T02:18:20.567Z,14.66
2017-05-26T02:19:01.153Z,14.7
2017-05-26T02:19:41.764Z,14.73
2017-05-26T02:20:22.351Z,14.7
2017-05-26T02:21:02.928Z,14.72
2017-05-26T02:21:43.509Z,14.77
2017-05-26T02:22:24.107Z,14.7
2017-05-26T02:23:04.694Z,14.68
2017-05-26T02:23:45.292Z,14.69
2017-05-26T02:24:25.876Z,14.66
2017-05-26T02:25:06.466Z,14.72
2017-05-26T02:25:47.074Z,14.66
2017-05-26T02:26:27.645Z,14.77
2017-05-26T02:27:08.223Z,14.72
2017-05-26T02:27:48.804Z,14.66
2017-05-26T02:28:29.405Z,14.68
2017-05-26T02:29:09.984Z,14.66
2017-05-26T02:29:50.609Z,14.77
2017-05-26T02:30:31.199Z,14.7
2017-05-26T02:31:11.779Z,14.68
2017-05-26T02:31:52.362Z,14.65
2017-05-26T02:32:32.945Z,14.72
2017-05-26T02:33:13.533Z,14.69
2017-05-26T02:33:54.118Z,14.72
2017-05-26T02:34:34.687Z,14.7
2017-05-26T02:35:15.267Z,14.66
2017-05-26T02:35:55.846Z,14.68
2017-05-26T02:36:36.438Z,14.69
2017-05-26T02:37:17.012Z,14.77
2017-05-26T02:37:57.592Z,14.7
2017-05-26T02:38:38.175Z,14.72
2017-05-26T02:39:18.810Z,14.69
2017-05-26T02:39:59.376Z,14.79
2017-05-26T02:40:39.949Z,14.65
2017-05-26T02:41:20.520Z,14.65
2017-05-26T02:42:01.651Z,14.7
2017-05-26T02:42:42.254Z,14.68
2017-05-26T02:43:22.822Z,14.65
2017-05-26T02:44:03.399Z,14.69
2017-05-26T02:44:44.003Z,14.69
2017-05-26T02:45:24.585Z,14.68
2017-05-26T02:46:05.173Z,14.72
2017-05-26T02:46:45.756Z,14.7
2017-05-26T02:47:26.337Z,14.69
2017-05-26T02:48:06.938Z,14.65
2017-05-26T02:48:47.519Z,14.66
2017-05-26T02:49:28.095Z,14.65
2017-05-26T02:50:08.682Z,14.78
2017-05-26T02:50:49.261Z,14.6
2017-05-26T02:51:29.836Z,14.7
2017-05-26T02:52:10.457Z,14.68
2017-05-26T02:52:51.039Z,14.72
2017-05-26T02:53:31.657Z,14.72
2017-05-26T02:54:12.278Z,14.68
2017-05-26T02:54:52.850Z,14.69
2017-05-26T02:55:33.434Z,14.77
2017-05-26T02:56:14.029Z,14.66
2017-05-26T02:56:54.660Z,14.69
2017-05-26T02:57:35.268Z,14.73
2017-05-26T02:58:15.799Z,14.66
2017-05-26T02:58:56.388Z,14.66
2017-05-26T02:59:36.968Z,14.68
2017-05-26T03:00:17.550Z,14.66
2017-05-26T03:00:58.123Z,14.68
2017-05-26T03:01:38.696Z,14.72
2017-05-26T03:02:19.262Z,14.69
2017-05-26T03:02:59.853Z,14.72
2017-05-26T03:03:40.478Z,14.68
2017-05-26T03:04:21.076Z,14.7
2017-05-26T03:05:01.672Z,14.7
2017-05-26T03:05:42.276Z,14.68
2017-05-26T03:06:22.860Z,14.72
2017-05-26T03:07:03.456Z,14.7
2017-05-26T03:07:44.034Z,14.66
2017-05-26T03:08:24.626Z,14.65
2017-05-26T03:09:05.258Z,14.65
2017-05-26T03:09:45.855Z,14.72
2017-05-26T03:10:26.441Z,14.53
2017-05-26T03:11:07.018Z,14.73
2017-05-26T03:11:47.632Z,14.66
2017-05-26T03:12:28.218Z,14.7
2017-05-26T03:13:08.787Z,14.59
2017-05-26T03:13:49.369Z,14.65
2017-05-26T03:14:29.969Z,14.6
2017-05-26T03:15:10.544Z,14.65
2017-05-26T03:15:51.174Z,14.6
2017-05-26T03:16:31.824Z,14.65
2017-05-26T03:17:12.448Z,14.7
2017-05-26T03:17:53.022Z,14.58
2017-05-26T03:18:33.593Z,14.68
2017-05-26T03:19:14.172Z,14.68
2017-05-26T03:19:54.755Z,14.72
2017-05-26T03:20:35.365Z,14.72
2017-05-26T03:21:15.958Z,14.66
2017-05-26T03:21:56.531Z,14.69
2017-05-26T03:22:37.104Z,14.66
2017-05-26T03:23:17.680Z,14.65
2017-05-26T03:23:58.283Z,14.68
2017-05-26T03:24:38.897Z,14.66
2017-05-26T03:25:19.466Z,14.69
2017-05-26T03:26:00.050Z,14.68
2017-05-26T03:26:40.707Z,14.72
2017-05-26T03:27:21.281Z,14.65
2017-05-26T03:28:01.855Z,14.68
2017-05-26T03:28:42.449Z,14.72
2017-05-26T03:29:23.037Z,14.78
2017-05-26T03:30:03.620Z,14.78
2017-05-26T03:30:44.205Z,14.68
2017-05-26T03:31:24.802Z,14.69
2017-05-26T03:32:05.426Z,14.7
2017-05-26T03:32:46.008Z,14.7
2017-05-26T03:33:26.606Z,14.72
2017-05-26T03:34:07.210Z,14.68
2017-05-26T03:34:47.784Z,14.69
2017-05-26T03:35:28.364Z,14.68
2017-05-26T03:36:08.977Z,14.79
2017-05-26T03:36:49.547Z,14.68
2017-05-26T03:37:30.138Z,14.72
2017-05-26T03:38:10.730Z,14.82
2017-05-26T03:38:51.317Z,14.79
2017-05-26T03:39:31.898Z,14.81
2017-05-26T03:40:12.485Z,14.66
2017-05-26T03:40:53.092Z,14.81
2017-05-26T03:41:33.689Z,14.81
2017-05-26T03:42:14.324Z,14.69
2017-05-26T03:42:54.951Z,14.81
2017-05-26T03:43:35.534Z,14.81
2017-05-26T03:44:16.120Z,14.82
2017-05-26T03:44:56.706Z,14.69
2017-05-26T03:45:37.284Z,14.84
2017-05-26T03:46:17.871Z,14.78
2017-05-26T03:46:58.472Z,14.86
2017-05-26T03:47:39.055Z,14.84
2017-05-26T03:48:19.636Z,14.84
2017-05-26T03:49:00.220Z,14.82
2017-05-26T03:49:40.834Z,14.86
2017-05-26T03:50:21.470Z,14.89
2017-05-26T03:51:02.049Z,14.86
2017-05-26T03:51:42.647Z,14.91
2017-05-26T03:52:23.252Z,14.92
2017-05-26T03:53:03.872Z,14.94
2017-05-26T03:53:44.445Z,14.89
2017-05-26T03:54:25.057Z,14.88
2017-05-26T03:55:05.648Z,14.86
2017-05-26T03:55:46.231Z,14.85
2017-05-26T03:56:26.813Z,14.89
2017-05-26T03:57:07.404Z,14.85
2017-05-26T03:57:47.995Z,14.88
2017-05-26T03:58:28.577Z,14.91
2017-05-26T03:59:09.167Z,14.94
2017-05-26T03:59:49.750Z,14.89
2017-05-26T04:00:30.339Z,14.96
2017-05-26T04:01:10.916Z,14.94
2017-05-26T04:01:51.511Z,14.96
2017-05-26T04:02:32.150Z,14.97
2017-05-26T04:03:12.737Z,15
2017-05-26T04:03:53.323Z,14.91
2017-05-26T04:04:33.923Z,14.97
2017-05-26T04:05:14.541Z,14.97
2017-05-26T04:05:55.117Z,14.92
2017-05-26T04:06:35.709Z,14.97
2017-05-26T04:07:16.301Z,15.02
2017-05-26T04:07:56.907Z,15
2017-05-26T04:08:37.531Z,14.96
2017-05-26T04:09:18.115Z,14.96
2017-05-26T04:09:58.727Z,15
2017-05-26T04:10:39.335Z,15
2017-05-26T04:11:19.929Z,15.09
2017-05-26T04:12:00.528Z,14.99
2017-05-26T04:12:41.101Z,14.99
2017-05-26T04:13:21.705Z,15.03
2017-05-26T04:14:02.301Z,15.04
2017-05-26T04:14:42.869Z,15.02
2017-05-26T04:15:23.491Z,15.04
2017-05-26T04:16:04.076Z,15.14
2017-05-26T04:16:44.665Z,15.15
2017-05-26T04:17:25.240Z,15.11
2017-05-26T04:18:05.832Z,15.11
2017-05-26T04:18:46.432Z,15.15
2017-05-26T04:19:27.020Z,15.15
2017-05-26T04:20:07.643Z,15.11
2017-05-26T04:20:48.226Z,15.11
2017-05-26T04:21:28.812Z,15.15
2017-05-26T04:22:09.430Z,15.1
2017-05-26T04:22:50.039Z,15.11
2017-05-26T04:23:30.633Z,15.19
2017-05-26T04:24:11.225Z,15.18
2017-05-26T04:24:51.802Z,15.22
2017-05-26T04:25:32.369Z,15.17
2017-05-26T04:26:12.943Z,15.21
2017-05-26T04:26:53.520Z,15.24
2017-05-26T04:27:34.122Z,15.22
2017-05-26T04:28:14.691Z,15.25
2017-05-26T04:28:55.267Z,15.31
2017-05-26T04:29:35.884Z,15.33
2017-05-26T04:30:16.473Z,15.37
2017-05-26T04:30:57.058Z,15.39
2017-05-26T04:31:37.645Z,15.46
2017-05-26T04:32:18.224Z,15.33
2017-05-26T04:32:58.812Z,15.36
2017-05-26T04:33:39.421Z,15.35
2017-05-26T04:34:20.009Z,15.42
2017-05-26T04:35:00.587Z,15.44
2017-05-26T04:35:41.180Z,15.44
2017-05-26T04:36:21.808Z,15.44
2017-05-26T04:37:02.392Z,15.44
2017-05-26T04:37:42.974Z,15.51
2017-05-26T04:38:23.555Z,15.54
2017-05-26T04:39:04.144Z,15.44
2017-05-26T04:39:44.742Z,15.58
2017-05-26T04:40:25.321Z,15.52
2017-05-26T04:41:05.965Z,15.57
2017-05-26T04:41:46.587Z,15.55
2017-05-26T04:42:27.165Z,15.58
2017-05-26T04:43:07.745Z,15.61
2017-05-26T04:43:48.325Z,15.62
2017-05-26T04:44:28.943Z,15.61
2017-05-26T04:45:09.520Z,15.64
2017-05-26T04:45:50.107Z,15.64
2017-05-26T04:46:30.695Z,15.72
2017-05-26T04:47:11.293Z,15.77
2017-05-26T04:47:51.881Z,15.79
2017-05-26T04:48:32.461Z,15.76
2017-05-26T04:49:13.061Z,15.79
2017-05-26T04:49:53.724Z,15.84
2017-05-26T04:50:34.356Z,15.77
2017-05-26T04:51:14.968Z,15.84
2017-05-26T04:51:55.567Z,15.86
2017-05-26T04:52:36.137Z,15.77
2017-05-26T04:53:16.712Z,15.88
2017-05-26T04:53:57.326Z,15.88
2017-05-26T04:54:37.908Z,15.9
2017-05-26T04:55:18.492Z,15.95
2017-05-26T04:55:59.079Z,15.97
2017-05-26T04:56:39.661Z,15.91
2017-05-26T04:57:20.259Z,15.88
2017-05-26T04:58:00.841Z,15.77
2017-05-26T04:58:41.451Z,15.84
2017-05-26T04:59:22.078Z,15.76
2017-05-26T05:00:02.712Z,15.75
2017-05-26T05:00:43.334Z,15.82
2017-05-26T05:01:23.897Z,15.83
2017-05-26T05:02:04.491Z,15.8
2017-05-26T05:02:45.071Z,15.79
2017-05-26T05:03:25.653Z,15.79
2017-05-26T05:04:06.235Z,15.75
2017-05-26T05:04:46.815Z,15.72
2017-05-26T05:05:27.398Z,15.73
2017-05-26T05:06:07.979Z,15.77
2017-05-26T05:06:48.612Z,15.68
2017-05-26T05:07:29.199Z,15.72
2017-05-26T05:08:09.777Z,15.68
2017-05-26T05:08:50.353Z,15.59
2017-05-26T05:09:30.933Z,15.57
2017-05-26T05:10:11.512Z,15.57
2017-05-26T05:10:52.139Z,15.52
2017-05-26T05:11:32.728Z,15.44
2017-05-26T05:12:13.451Z,15.44
2017-05-26T05:12:54.073Z,15.43
2017-05-26T05:13:34.670Z,15.44
2017-05-26T05:14:15.248Z,15.36
2017-05-26T05:14:55.889Z,15.37
2017-05-26T05:15:36.484Z,15.39
2017-05-26T05:16:17.068Z,15.42
2017-05-26T05:16:57.646Z,15.36
2017-05-26T05:17:38.223Z,15.35
2017-05-26T05:18:18.824Z,15.36
2017-05-26T05:18:59.443Z,15.4
2017-05-26T05:19:40.114Z,15.39
2017-05-26T05:20:20.689Z,15.36
2017-05-26T05:21:01.276Z,15.29
2017-05-26T05:21:41.856Z,15.28
2017-05-26T05:22:22.431Z,15.29
2017-05-26T05:23:03.051Z,15.28
2017-05-26T05:23:43.627Z,15.27
2017-05-26T05:24:24.224Z,15.29
2017-05-26T05:25:04.853Z,15.31
2017-05-26T05:25:45.453Z,15.25
2017-05-26T05:26:26.045Z,15.28
2017-05-26T05:27:06.629Z,15.21
2017-05-26T05:27:47.232Z,15.21
2017-05-26T05:28:27.816Z,15.21
2017-05-26T05:29:08.406Z,15.22
2017-05-26T05:29:49.034Z,15.24
2017-05-26T05:30:29.636Z,15.29
2017-05-26T05:31:10.226Z,15.24
2017-05-26T05:31:50.900Z,15.25
2017-05-26T05:32:31.489Z,15.33
2017-05-26T05:33:12.142Z,15.29
2017-05-26T05:33:52.742Z,15.27
2017-05-26T05:34:33.426Z,15.25
2017-05-26T05:35:14.062Z,15.28
2017-05-26T05:35:54.661Z,15.29
2017-05-26T05:36:35.247Z,15.29
2017-05-26T05:37:15.920Z,15.35
2017-05-26T05:37:56.495Z,15.39
2017-05-26T05:38:37.091Z,15.33
2017-05-26T05:39:17.679Z,15.35
2017-05-26T05:39:58.269Z,15.35
2017-05-26T05:40:38.858Z,15.28
2017-05-26T05:41:19.451Z,15.28
2017-05-26T05:42:00.024Z,15.24
2017-05-26T05:42:40.643Z,15.24
2017-05-26T05:43:21.229Z,15.28
2017-05-26T05:44:01.840Z,15.31
2017-05-26T05:44:42.429Z,15.27
2017-05-26T05:45:23.025Z,15.35
2017-05-26T05:46:03.624Z,15.42
2017-05-26T05:46:44.212Z,15.33
2017-05-26T05:47:24.800Z,15.36
2017-05-26T05:48:05.402Z,15.46
2017-05-26T05:48:45.979Z,15.39
2017-05-26T05:49:26.572Z,15.52
2017-05-26T05:50:07.165Z,15.47
2017-05-26T05:50:47.756Z,15.52
2017-05-26T05:51:28.353Z,15.47
2017-05-26T05:52:09.017Z,15.59
2017-05-26T05:52:49.594Z,15.68
2017-05-26T05:53:30.186Z,15.65
2017-05-26T05:54:10.777Z,15.61
2017-05-26T05:54:51.370Z,15.58
2017-05-26T05:55:31.952Z,15.55
2017-05-26T05:56:12.533Z,15.54
2017-05-26T05:56:53.129Z,15.55
2017-05-26T05:57:33.715Z,15.64
2017-05-26T05:58:14.338Z,15.61
2017-05-26T05:58:54.915Z,15.62
2017-05-26T05:59:35.510Z,15.58
2017-05-26T06:00:16.084Z,15.57
2017-05-26T06:00:56.676Z,15.57
2017-05-26T06:01:37.267Z,15.62
2017-05-26T06:02:17.956Z,15.72
2017-05-26T06:02:58.566Z,15.76
2017-05-26T06:03:39.290Z,15.72
2017-05-26T06:04:19.882Z,15.79
2017-05-26T06:05:00.488Z,15.84
2017-05-26T06:05:41.249Z,15.86
2017-05-26T06:06:21.861Z,15.76
2017-05-26T06:07:02.556Z,15.8
2017-05-26T06:07:43.141Z,15.84
2017-05-26T06:08:23.732Z,15.83
2017-05-26T06:09:04.327Z,15.86
2017-05-26T06:09:44.898Z,15.98
2017-05-26T06:10:25.517Z,16
2017-05-26T06:11:06.100Z,15.97
2017-05-26T06:11:46.694Z,15.95
2017-05-26T06:12:27.277Z,16.02
2017-05-26T06:13:07.871Z,15.98
2017-05-26T06:13:48.463Z,15.92
2017-05-26T06:14:29.060Z,15.98
2017-05-26T06:15:09.637Z,15.86
2017-05-26T06:15:50.225Z,15.83
2017-05-26T06:16:30.825Z,15.84
2017-05-26T06:17:11.422Z,15.82
2017-05-26T06:17:52.004Z,15.79
2017-05-26T06:18:32.595Z,15.67
2017-05-26T06:19:13.189Z,15.75
2017-05-26T06:19:53.809Z,15.76
2017-05-26T06:20:34.403Z,15.79
2017-05-26T06:21:14.971Z,15.83
2017-05-26T06:21:55.555Z,15.91
2017-05-26T06:22:36.155Z,15.86
2017-05-26T06:23:16.756Z,15.83
2017-05-26T06:23:57.348Z,15.88
2017-05-26T06:24:37.952Z,15.84
2017-05-26T06:25:18.606Z,15.84
2017-05-26T06:26:00.177Z,15.83
2017-05-26T06:26:42.914Z,15.97
2017-05-26T06:27:33.176Z,15.92
2017-05-26T06:28:13.750Z,15.92
2017-05-26T06:28:54.357Z,15.91
2017-05-26T06:29:34.949Z,15.91
2017-05-26T06:30:15.543Z,15.82
2017-05-26T06:30:56.127Z,15.8
2017-05-26T06:31:36.699Z,15.84
2017-05-26T06:32:17.325Z,15.76
2017-05-26T06:32:57.899Z,15.86
2017-05-26T06:33:38.523Z,15.86
2017-05-26T06:34:19.116Z,15.79
2017-05-26T06:34:59.746Z,15.8
2017-05-26T06:35:40.342Z,15.77
2017-05-26T06:36:20.928Z,15.83
2017-05-26T06:37:01.508Z,15.73
2017-05-26T06:37:42.099Z,15.76
2017-05-26T06:38:22.689Z,15.76
2017-05-26T06:39:03.275Z,15.75
2017-05-26T06:39:43.847Z,15.82
2017-05-26T06:40:24.443Z,15.77
2017-05-26T06:41:05.036Z,15.77
2017-05-26T06:41:45.671Z,15.75
2017-05-26T06:42:26.309Z,15.76
2017-05-26T06:43:06.907Z,15.77
2017-05-26T06:43:47.494Z,15.72
2017-05-26T06:44:28.076Z,15.7
2017-05-26T06:45:08.670Z,15.64
2017-05-26T06:45:49.257Z,15.58
2017-05-26T06:46:29.840Z,15.55
2017-05-26T06:47:10.532Z,15.57
2017-05-26T06:47:51.153Z,15.55
2017-05-26T06:48:31.728Z,15.57
2017-05-26T06:49:12.335Z,15.59
2017-05-26T06:49:52.912Z,15.59
2017-05-26T06:50:33.527Z,15.72
2017-05-26T06:51:14.106Z,15.7
2017-05-26T06:51:54.696Z,15.7
2017-05-26T06:52:35.290Z,15.7
2017-05-26T06:53:15.905Z,15.75
2017-05-26T06:53:56.507Z,15.75
2017-05-26T06:54:37.101Z,15.68
2017-05-26T06:55:17.661Z,15.64
2017-05-26T06:55:58.237Z,15.68
2017-05-26T06:56:38.816Z,15.73
2017-05-26T06:57:19.396Z,15.73
2017-05-26T06:57:59.997Z,15.67
2017-05-26T06:58:40.586Z,15.65
2017-05-26T06:59:21.195Z,15.64
2017-05-26T07:00:01.785Z,15.65
2017-05-26T07:00:42.384Z,15.54
2017-05-26T07:01:22.963Z,15.62
2017-05-26T07:02:03.541Z,15.58
2017-05-26T07:02:44.139Z,15.57
2017-05-26T07:03:24.732Z,15.55
2017-05-26T07:04:05.314Z,15.47
2017-05-26T07:04:45.898Z,15.46
2017-05-26T07:05:26.478Z,15.51
2017-05-26T07:06:07.118Z,15.51
2017-05-26T07:06:47.707Z,15.49
2017-05-26T07:07:28.294Z,15.49
2017-05-26T07:08:08.888Z,15.49
2017-05-26T07:08:49.469Z,15.51
2017-05-26T07:09:30.064Z,15.47
2017-05-26T07:10:10.652Z,15.47
2017-05-26T07:10:51.239Z,15.54
2017-05-26T07:11:31.820Z,15.55
2017-05-26T07:12:12.394Z,15.54
2017-05-26T07:12:53.033Z,15.57
2017-05-26T07:13:33.627Z,15.58
2017-05-26T07:14:14.202Z,15.65
2017-05-26T07:14:54.797Z,15.72
2017-05-26T07:15:35.400Z,15.72
2017-05-26T07:16:15.986Z,15.75
2017-05-26T07:16:56.578Z,15.75
2017-05-26T07:17:37.184Z,15.73
2017-05-26T07:18:17.784Z,15.77
2017-05-26T07:18:58.368Z,15.73
2017-05-26T07:19:38.948Z,15.76
2017-05-26T07:20:19.528Z,15.77
2017-05-26T07:21:00.135Z,15.7
2017-05-26T07:21:40.726Z,15.72
2017-05-26T07:22:21.312Z,15.76
2017-05-26T07:23:01.910Z,15.8
2017-05-26T07:23:42.546Z,15.86
2017-05-26T07:24:23.121Z,15.86
2017-05-26T07:25:03.730Z,15.83
2017-05-26T07:25:44.319Z,15.88
2017-05-26T07:26:24.908Z,15.9
2017-05-26T07:27:05.533Z,15.91
2017-05-26T07:27:46.125Z,16.02
2017-05-26T07:28:26.794Z,16.02
2017-05-26T07:29:07.391Z,16.02
2017-05-26T07:29:47.963Z,16.01
2017-05-26T07:30:29.135Z,16.09
2017-05-26T07:31:09.777Z,16.01
2017-05-26T07:31:50.364Z,16.05
2017-05-26T07:32:30.952Z,16.04
2017-05-26T07:33:11.538Z,16.09
2017-05-26T07:33:52.121Z,16.12
2017-05-26T07:34:32.707Z,16.2
2017-05-26T07:35:13.280Z,16.29
2017-05-26T07:35:53.876Z,16.29
2017-05-26T07:36:34.467Z,16.36
2017-05-26T07:37:15.087Z,16.38
2017-05-26T07:37:55.682Z,16.33
2017-05-26T07:38:36.264Z,16.31
2017-05-26T07:39:16.845Z,16.28
2017-05-26T07:39:57.423Z,16.24
2017-05-26T07:40:38.007Z,16.33
2017-05-26T07:41:18.591Z,16.31
2017-05-26T07:41:59.194Z,16.26
2017-05-26T07:42:39.785Z,16.35
2017-05-26T07:43:20.363Z,16.35
2017-05-26T07:44:00.938Z,16.39
2017-05-26T07:44:41.522Z,16.41
2017-05-26T07:45:22.100Z,16.47
2017-05-26T07:46:02.681Z,16.51
2017-05-26T07:46:43.286Z,16.41
2017-05-26T07:47:23.872Z,16.53
2017-05-26T07:48:04.445Z,16.47
2017-05-26T07:48:45.040Z,16.53
2017-05-26T07:49:25.633Z,16.6
2017-05-26T07:50:06.222Z,16.53
2017-05-26T07:50:46.829Z,16.58
2017-05-26T07:51:27.421Z,16.54
2017-05-26T07:52:08.025Z,16.58
2017-05-26T07:52:48.602Z,16.5
2017-05-26T07:53:29.191Z,16.46
2017-05-26T07:54:09.772Z,16.49
2017-05-26T07:54:50.378Z,16.5
2017-05-26T07:55:30.948Z,16.47
2017-05-26T07:56:11.537Z,16.47
2017-05-26T07:56:52.117Z,16.47
2017-05-26T07:57:32.720Z,16.42
2017-05-26T07:58:13.287Z,16.46
2017-05-26T07:58:53.871Z,16.43
2017-05-26T07:59:34.460Z,16.54
2017-05-26T08:00:15.048Z,16.53
2017-05-26T08:00:55.641Z,16.57
2017-05-26T08:01:36.237Z,16.56
2017-05-26T08:02:16.996Z,16.58
2017-05-26T08:02:57.619Z,16.57
2017-05-26T08:03:38.201Z,16.53
2017-05-26T08:04:18.801Z,16.58
2017-05-26T08:04:59.421Z,16.51
2017-05-26T08:05:39.994Z,16.47
2017-05-26T08:06:20.583Z,16.5
2017-05-26T08:07:01.165Z,16.36
2017-05-26T08:07:41.778Z,16.36
2017-05-26T08:08:22.370Z,16.41
2017-05-26T08:09:02.958Z,16.33
2017-05-26T08:09:43.585Z,16.33
2017-05-26T08:10:24.180Z,16.38
2017-05-26T08:11:04.778Z,16.39
2017-05-26T08:11:45.369Z,16.36
2017-05-26T08:12:25.967Z,16.36
2017-05-26T08:13:06.588Z,16.39
2017-05-26T08:13:47.173Z,16.5
2017-05-26T08:14:27.781Z,16.38
2017-05-26T08:15:08.367Z,16.47
2017-05-26T08:15:48.942Z,16.5
2017-05-26T08:16:29.534Z,16.58
2017-05-26T08:17:10.134Z,16.56
2017-05-26T08:17:50.713Z,16.6
2017-05-26T08:18:31.293Z,16.58
2017-05-26T08:19:11.889Z,16.71
2017-05-26T08:19:52.472Z,16.58
2017-05-26T08:20:33.054Z,16.72
2017-05-26T08:21:13.656Z,16.69
2017-05-26T08:21:54.262Z,16.74
2017-05-26T08:22:34.856Z,16.76
2017-05-26T08:23:15.436Z,16.76
2017-05-26T08:23:56.018Z,16.69
2017-05-26T08:24:36.620Z,16.74
2017-05-26T08:25:17.190Z,16.79
2017-05-26T08:25:57.778Z,16.78
2017-05-26T08:26:38.363Z,16.83
2017-05-26T08:27:18.942Z,16.83
2017-05-26T08:27:59.540Z,16.9
2017-05-26T08:28:40.140Z,16.84
2017-05-26T08:29:20.858Z,16.79
2017-05-26T08:30:09.563Z,16.83
2017-05-26T08:30:50.205Z,16.81
2017-05-26T08:31:30.798Z,16.83
2017-05-26T08:32:11.456Z,16.79
2017-05-26T08:32:52.042Z,16.78
2017-05-26T08:33:32.651Z,16.78
2017-05-26T08:34:13.233Z,16.79
2017-05-26T08:34:53.857Z,16.86
2017-05-26T08:35:34.454Z,16.97
2017-05-26T08:36:15.059Z,16.9
2017-05-26T08:36:55.639Z,16.89
2017-05-26T08:37:36.227Z,16.94
2017-05-26T08:38:16.824Z,16.89
2017-05-26T08:38:57.410Z,16.99
2017-05-26T08:39:38.005Z,17.04
2017-05-26T08:40:18.615Z,17.02
2017-05-26T08:40:59.207Z,17.08
2017-05-26T08:41:39.863Z,17.06
2017-05-26T08:42:20.390Z,17.04
2017-05-26T08:43:00.983Z,17.14
2017-05-26T08:43:41.561Z,17.08
2017-05-26T08:44:22.164Z,17.14
2017-05-26T08:45:02.742Z,17.26